Terminal Aerodrome Forecast
Issued by NWS

Home | Current Version | Previous Version | Text Only | Print | Product List | Glossary Off
Versions: 1 2 3 4 5 6 7 8 9 10 11 12 13 14 15 16 17 18 19 20 21

000
FTUS42 KMHX 191959 AAC
TAFOAJ
TAF AMD
KOAJ 191959Z 1920/2018 VRB04KT 3SM TSRA BKN025CB OVC040
     FM192030 20009KT P6SM VCTS BKN035CB BKN050
     FM200300 VRB03KT P6SM BKN250
      AMD LTD TO CLD VIS AND WIND=

USA.gov is the U.S. government's official web portal to all federal, state and local government web resources and services.